Time;durP1;ratioP1;P1;durP2;ratioP2;P2;SDS_P1;SDS_P2;PMS_P1;PMS_P2;Temp;Humidity;BMP_temperature;BMP_pressure;BME280_temperature;BME280_humidity;BME280_pressure;Samples;Min_cycle;Max_cycle;Signal;HPM_P1;HPM_P2
2022/11/07 00:00:10;;;;;;;5.50;3.25;;;;;;;9.35;100.00;100340.50;2087595;28;33975;-71
2022/11/07 00:01:22;;;;;;;7.20;3.80;;;;;;;9.37;99.85;100336.00;2078096;28;39616;-71
2022/11/07 00:02:26;;;;;;;3.95;3.20;;;;;;;9.36;100.00;100342.25;2079373;28;34755;-71
2022/11/07 00:03:28;;;;;;;4.45;3.00;;;;;;;9.40;100.00;100335.91;2080856;28;30822;-71
2022/11/07 00:04:30;;;;;;;5.45;3.55;;;;;;;9.44;99.68;100342.94;2087572;28;34160;-71
2022/11/07 00:05:32;;;;;;;5.88;3.10;;;;;;;9.42;100.00;100339.44;2087339;28;34619;-71
2022/11/07 00:06:36;;;;;;;5.90;3.20;;;;;;;9.43;99.92;100333.16;2087071;28;37614;-71
2022/11/07 00:07:37;;;;;;;6.40;3.40;;;;;;;9.44;100.00;100342.94;2086058;28;35854;-71
2022/11/07 00:08:40;;;;;;;8.77;3.05;;;;;;;9.45;100.00;100341.13;2087447;28;36336;-71
2022/11/07 00:09:42;;;;;;;7.32;2.92;;;;;;;9.45;99.67;100346.47;2087307;28;34954;-71
2022/11/07 00:10:44;;;;;;;6.60;3.50;;;;;;;9.45;100.00;100335.78;2088282;28;20038;-71
2022/11/07 00:11:48;;;;;;;5.10;2.92;;;;;;;9.45;100.00;100346.47;2088010;28;38718;-71
2022/11/07 00:12:50;;;;;;;4.88;2.80;;;;;;;9.46;100.00;100346.44;2086559;28;37017;-71
2022/11/07 00:13:54;;;;;;;3.92;2.72;;;;;;;9.46;100.00;100345.56;2086752;28;32133;-71
2022/11/07 00:14:55;;;;;;;6.68;2.88;;;;;;;9.46;100.00;100349.09;2087138;28;35096;-71
2022/11/07 00:16:04;;;;;;;3.70;2.33;;;;;;;9.50;100.00;100340.06;2087221;28;20045;-71
2022/11/07 00:17:07;;;;;;;6.68;2.80;;;;;;;9.52;100.00;100345.38;2087275;28;30115;-71
2022/11/07 00:18:08;;;;;;;6.65;2.63;;;;;;;9.51;100.00;100352.53;2087063;28;37887;-71
2022/11/07 00:19:14;;;;;;;7.13;2.65;;;;;;;9.54;100.00;100352.41;2087119;28;34969;-71
2022/11/07 00:20:16;;;;;;;4.72;2.40;;;;;;;9.54;100.00;100344.41;2087302;28;39560;-71
2022/11/07 00:21:18;;;;;;;5.22;2.47;;;;;;;9.54;100.00;100348.88;2089261;28;20046;-71
2022/11/07 00:22:19;;;;;;;3.83;2.40;;;;;;;9.58;100.00;100350.53;2088523;28;33942;-71
2022/11/07 00:23:21;;;;;;;5.28;2.72;;;;;;;9.57;100.00;100340.78;2088970;28;34442;-71
2022/11/07 00:24:23;;;;;;;4.97;2.60;;;;;;;9.60;100.00;100348.72;2089242;28;29242;-71
2022/11/07 00:25:25;;;;;;;5.07;2.00;;;;;;;9.60;100.00;100350.50;2088799;28;33824;-72
2022/11/07 00:26:26;;;;;;;5.35;2.78;;;;;;;9.61;100.00;100344.25;2088865;28;37111;-71
2022/11/07 00:27:29;;;;;;;5.88;2.88;;;;;;;9.61;100.00;100346.91;2089607;28;20249;-71
2022/11/07 00:28:35;;;;;;;6.40;2.60;;;;;;;9.61;100.00;100346.91;2088221;28;21836;-71
2022/11/07 00:29:37;;;;;;;3.55;2.22;;;;;;;9.61;100.00;100346.91;2080653;28;35074;-71
2022/11/07 00:30:39;;;;;;;4.55;2.05;;;;;;;9.61;100.00;100342.44;2088303;28;29783;-71
2022/11/07 00:31:43;;;;;;;5.93;2.55;;;;;;;9.63;100.00;100345.06;2089061;28;33782;-71
2022/11/07 00:32:44;;;;;;;4.88;2.33;;;;;;;9.64;100.00;100350.38;2088512;28;20046;-71
2022/11/07 00:33:46;;;;;;;5.32;2.28;;;;;;;9.64;100.00;100336.16;2088659;28;30571;-71
2022/11/07 00:34:48;;;;;;;4.07;2.10;;;;;;;9.64;100.00;100346.84;2089325;28;35486;-72
2022/11/07 00:35:49;;;;;;;5.05;1.92;;;;;;;9.65;100.00;100354.78;2088198;28;32143;-71
2022/11/07 00:36:53;;;;;;;4.53;2.20;;;;;;;9.65;100.00;100340.56;2089177;28;32722;-71
2022/11/07 00:37:57;;;;;;;5.32;1.92;;;;;;;9.68;100.00;100351.16;2089119;28;32989;-71
2022/11/07 00:38:59;;;;;;;5.20;2.28;;;;;;;9.67;100.00;100352.97;2088425;28;38705;-71
2022/11/07 00:40:01;;;;;;;7.68;2.42;;;;;;;9.69;100.00;100347.56;2088785;28;37577;-71
2022/11/07 00:41:05;;;;;;;3.45;2.20;;;;;;;9.70;100.00;100350.19;2089439;28;20049;-70
2022/11/07 00:42:07;;;;;;;5.65;2.33;;;;;;;9.72;100.00;100348.34;2079821;28;36820;-71
2022/11/07 00:43:08;;;;;;;6.60;2.15;;;;;;;9.73;100.00;100355.44;2080068;28;26509;-71
2022/11/07 00:44:11;;;;;;;6.13;2.10;;;;;;;9.74;100.00;100356.31;2088117;28;36362;-71
2022/11/07 00:45:12;;;;;;;6.72;2.30;;;;;;;9.72;100.00;100356.34;2088830;28;40291;-71
2022/11/07 00:46:16;;;;;;;4.68;2.38;;;;;;;9.73;100.00;100352.78;2090056;28;20763;-71
2022/11/07 00:47:19;;;;;;;6.72;2.10;;;;;;;9.78;100.00;100351.75;2088860;28;20041;-71
2022/11/07 00:48:21;;;;;;;5.47;2.22;;;;;;;9.76;99.99;100354.47;2087772;28;32394;-71
2022/11/07 00:49:23;;;;;;;3.58;1.95;;;;;;;9.77;100.00;100350.91;2079835;28;28690;-71
2022/11/07 00:50:24;;;;;;;9.68;2.15;;;;;;;9.73;100.00;100354.59;2080016;28;36450;-71
2022/11/07 00:51:27;;;;;;;4.20;2.00;;;;;;;9.71;100.00;100351.94;2089446;28;20041;-71
2022/11/07 00:52:29;;;;;;;5.63;2.40;;;;;;;9.70;100.00;100355.53;2088004;28;37085;-71
2022/11/07 00:53:31;;;;;;;5.53;2.10;;;;;;;9.70;100.00;100360.88;2080173;28;27058;-71
2022/11/07 00:54:33;;;;;;;5.70;2.05;;;;;;;9.71;100.00;100353.75;2088257;28;30478;-71
2022/11/07 00:55:34;;;;;;;5.68;1.90;;;;;;;9.73;100.00;100373.31;2087581;28;37184;-72
2022/11/07 00:56:39;;;;;;;4.78;1.95;;;;;;;9.74;100.00;100361.66;2089447;28;33760;-71
2022/11/07 00:57:41;;;;;;;6.72;2.42;;;;;;;9.75;100.00;100361.63;2088160;28;33231;-71
2022/11/07 00:58:43;;;;;;;7.13;2.03;;;;;;;9.77;100.00;100358.06;2089586;28;20045;-71
2022/11/07 00:59:44;;;;;;;6.00;1.80;;;;;;;9.78;100.00;100359.78;2087551;28;33670;-71
2022/11/07 01:00:46;;;;;;;3.65;2.10;;;;;;;9.80;100.00;100365.97;2088818;28;37142;-71
2022/11/07 01:01:50;;;;;;;4.80;2.08;;;;;;;9.80;100.00;100358.84;2088980;28;20870;-71
2022/11/07 01:05:36;;;;;;;5.28;2.25;;;;;;;9.85;100.00;100370.28;2076731;28;34630;-72
2022/11/07 01:06:40;;;;;;;4.55;2.03;;;;;;;9.85;100.00;100374.72;2074984;28;36941;-72
2022/11/07 01:07:41;;;;;;;6.97;2.10;;;;;;;9.87;100.00;100375.56;2088294;28;29468;-72
2022/11/07 01:08:43;;;;;;;5.45;1.95;;;;;;;9.87;100.00;100378.22;2089393;28;20037;-72
2022/11/07 01:09:45;;;;;;;9.45;2.10;;;;;;;9.87;100.00;100371.09;2088451;28;32414;-72
2022/11/07 01:10:46;;;;;;;5.03;1.60;;;;;;;9.87;100.00;100371.09;2088470;28;35693;-72
2022/11/07 01:11:48;;;;;;;4.90;1.95;;;;;;;9.89;100.00;100371.94;2088376;28;37536;-72
2022/11/07 01:12:50;;;;;;;5.38;1.90;;;;;;;9.90;100.00;100378.16;2088548;28;36452;-72
2022/11/07 01:14:01;;;;;;;4.85;1.90;;;;;;;9.89;100.00;100377.28;2088783;28;30718;-72
2022/11/07 01:15:03;;;;;;;3.97;1.80;;;;;;;9.88;100.00;100364.81;2088355;28;33999;-72
2022/11/07 01:16:09;;;;;;;3.92;1.80;;;;;;;9.88;100.00;100363.94;2086740;28;31806;-72
2022/11/07 01:17:10;;;;;;;5.28;1.52;;;;;;;9.89;100.00;100366.59;2088480;28;30819;-72
2022/11/07 01:18:15;;;;;;;6.05;1.98;;;;;;;9.92;100.00;100365.59;2088706;28;20038;-72
2022/11/07 01:19:18;;;;;;;4.40;1.75;;;;;;;9.93;100.00;100373.59;2089296;28;32124;-72
2022/11/07 01:20:20;;;;;;;3.58;1.73;;;;;;;9.92;100.00;100368.28;2088364;28;36796;-72
2022/11/07 01:21:22;;;;;;;5.72;1.75;;;;;;;9.92;100.00;100368.28;2088683;28;37050;-72
2022/11/07 01:22:23;;;;;;;5.20;2.05;;;;;;;9.95;100.00;100373.53;2088937;28;20084;-72
2022/11/07 01:23:25;;;;;;;5.07;1.60;;;;;;;9.96;100.00;100371.75;2088156;28;32773;-72
2022/11/07 01:24:27;;;;;;;4.28;1.88;;;;;;;9.95;100.00;100373.53;2088362;28;28599;-72
2022/11/07 01:25:29;;;;;;;5.60;1.77;;;;;;;9.99;100.00;100379.69;2087840;28;32164;-72
2022/11/07 01:26:30;;;;;;;5.43;1.67;;;;;;;9.99;100.00;100383.22;2087462;28;36268;-71
2022/11/07 01:27:32;;;;;;;4.80;1.48;;;;;;;9.98;100.00;100376.13;2089300;28;20446;-71
2022/11/07 01:28:35;;;;;;;6.70;1.90;;;;;;;10.00;100.00;100376.09;2088789;28;30136;-72
2022/11/07 01:29:37;;;;;;;7.10;1.83;;;;;;;9.99;100.00;100377.88;2087671;28;38477;-71
2022/11/07 01:30:41;;;;;;;4.35;1.58;;;;;;;9.99;100.00;100377.88;2087396;28;40482;-71
2022/11/07 01:31:43;;;;;;;7.00;1.92;;;;;;;9.99;100.00;100382.34;2087955;28;29459;-72
2022/11/07 01:32:45;;;;;;;5.53;1.85;;;;;;;9.99;100.00;100382.34;2078066;28;34026;-72
2022/11/07 01:33:47;;;;;;;6.63;1.88;;;;;;;9.99;100.00;100385.88;2080796;28;20042;-72
2022/11/07 01:34:49;;;;;;;2.80;1.40;;;;;;;10.02;100.00;100398.31;2088405;28;32976;-71
2022/11/07 01:35:50;;;;;;;4.05;1.63;;;;;;;10.02;100.00;100377.78;2088526;28;35247;-72
2022/11/07 01:36:52;;;;;;;3.78;1.50;;;;;;;10.04;100.00;100386.63;2088570;28;36122;-72
2022/11/07 01:37:54;;;;;;;5.40;1.88;;;;;;;10.05;100.00;100395.53;2088517;28;33874;-72
2022/11/07 01:38:55;;;;;;;4.97;1.55;;;;;;;10.06;100.00;100386.59;2087304;28;38188;-72
2022/11/07 01:39:57;;;;;;;4.38;1.20;;;;;;;10.06;100.00;100389.28;2087991;28;30912;-71
2022/11/07 01:41:20;;;;;;;6.20;1.55;;;;;;;10.06;100.00;100392.81;2087833;28;38983;-71
2022/11/07 01:42:25;;;;;;;6.38;1.65;;;;;;;10.05;100.00;100385.72;2088376;28;30533;-71
2022/11/07 01:43:57;;;;;;;3.53;1.40;;;;;;;10.06;100.00;100379.44;2088509;28;35050;-72
2022/11/07 01:45:01;;;;;;;7.15;1.55;;;;;;;10.08;100.00;100388.28;2088906;28;20073;-72
2022/11/07 01:46:03;;;;;;;4.90;1.50;;;;;;;10.10;100.00;100380.22;2087750;28;34426;-72
2022/11/07 01:47:05;;;;;;;6.85;1.65;;;;;;;10.10;100.00;100386.47;2087214;28;31798;-72
2022/11/07 01:48:06;;;;;;;5.70;1.40;;;;;;;10.10;100.00;100381.13;2087996;28;35926;-72
2022/11/07 01:49:26;;;;;;;4.55;1.83;;;;;;;10.10;100.00;100378.44;2087986;28;31067;-72
2022/11/07 01:50:29;;;;;;;4.82;1.50;;;;;;;10.10;100.00;100382.91;2088263;28;33177;-71
2022/11/07 01:51:40;;;;;;;3.92;1.60;;;;;;;10.11;100.00;100388.22;2088508;28;20046;-71
2022/11/07 01:52:46;;;;;;;3.60;1.60;;;;;;;10.10;100.00;100396.28;2088962;28;30543;-71
2022/11/07 01:53:50;;;;;;;4.95;1.65;;;;;;;10.11;100.00;100395.38;2088119;28;35676;-72
2022/11/07 01:55:34;;;;;;;6.00;1.73;;;;;;;10.10;100.00;100391.81;2088402;28;33961;-71
2022/11/07 01:56:42;;;;;;;6.95;1.42;;;;;;;10.12;100.00;100386.41;2063280;28;31934;-72
2022/11/07 01:57:58;;;;;;;5.05;2.20;;;;;;;10.13;100.00;100381.00;2087078;28;31668;-72
2022/11/07 01:59:01;;;;;;;5.20;1.60;;;;;;;10.13;100.00;100385.50;2088212;28;30016;-72
2022/11/07 02:00:08;;;;;;;6.18;1.83;;;;;;;10.14;100.00;100397.97;2087662;28;32082;-72
2022/11/07 02:01:10;;;;;;;5.35;1.40;;;;;;;10.14;100.00;100392.59;2080721;28;36959;-72
2022/11/07 02:02:12;;;;;;;5.95;1.40;;;;;;;10.15;100.00;100386.31;2087343;28;37374;-71
2022/11/07 02:03:19;;;;;;;7.65;1.40;;;;;;;10.18;100.00;100396.94;2088599;28;28812;-71
2022/11/07 02:04:24;;;;;;;4.95;1.52;;;;;;;10.19;100.00;100387.97;2079014;28;33125;-72
2022/11/07 02:05:34;;;;;;;5.20;1.67;;;;;;;10.20;100.00;100395.09;2079998;28;35162;-71
2022/11/07 02:06:51;;;;;;;5.85;1.70;;;;;;;10.22;100.00;100390.56;2079717;28;32883;-72
2022/11/07 02:07:53;;;;;;;5.32;1.60;;;;;;;10.22;100.00;100381.66;2078448;28;20933;-71
2022/11/07 02:08:55;;;;;;;7.40;1.70;;;;;;;10.24;100.00;100398.53;2081096;28;20886;-71
2022/11/07 02:09:58;;;;;;;4.78;1.48;;;;;;;10.24;99.96;100390.50;2087974;28;30482;-72
2022/11/07 02:11:02;;;;;;;7.97;1.55;;;;;;;10.20;100.00;100392.41;2088081;28;20041;-72
2022/11/07 02:12:04;;;;;;;6.53;1.40;;;;;;;10.19;100.00;100393.31;2079725;28;38835;-71
2022/11/07 02:13:06;;;;;;;6.82;1.65;;;;;;;10.15;100.00;100391.66;2087515;28;33924;-71
2022/11/07 02:14:14;;;;;;;6.07;1.52;;;;;;;10.16;100.00;100392.53;2088980;28;20037;-71
2022/11/07 02:15:16;;;;;;;5.47;1.40;;;;;;;10.15;100.00;100396.16;2079121;28;30703;-72
2022/11/07 02:16:18;;;;;;;5.93;1.42;;;;;;;10.11;100.00;100387.34;2080433;28;20822;-72
2022/11/07 02:17:19;;;;;;;4.90;1.40;;;;;;;10.11;100.00;100390.88;2095655;28;33128;-72
2022/11/07 02:18:26;;;;;;;5.32;1.40;;;;;;;10.08;100.00;100392.78;2088554;28;30382;-72
2022/11/07 02:19:37;;;;;;;6.60;1.50;;;;;;;10.03;100.00;100389.34;2088303;28;36607;-71
2022/11/07 02:20:39;;;;;;;6.78;1.52;;;;;;;9.99;100.00;100395.72;2087728;28;36056;-72
2022/11/07 02:22:02;;;;;;;6.55;1.65;;;;;;;9.96;100.00;100393.13;2088613;28;20037;-71
2022/11/07 02:23:17;;;;;;;5.18;1.58;;;;;;;9.96;100.00;100394.03;2087808;28;31361;-72
2022/11/07 02:24:31;;;;;;;6.68;1.70;;;;;;;9.99;100.00;100393.91;2084719;28;20038;-71
2022/11/07 02:25:34;;;;;;;6.65;1.75;;;;;;;10.01;100.00;100394.75;2083150;28;33537;-71
2022/11/07 02:26:38;;;;;;;6.97;1.85;;;;;;;10.01;100.00;100393.88;2087077;28;37257;-71
2022/11/07 02:27:42;;;;;;;6.35;1.60;;;;;;;10.03;100.00;100394.69;2087700;28;38397;-71
2022/11/07 02:28:46;;;;;;;6.63;1.40;;;;;;;10.05;100.00;100398.19;2087244;28;38497;-72
2022/11/07 02:29:56;;;;;;;7.28;1.30;;;;;;;10.04;100.00;100393.78;2080369;28;31953;-72
2022/11/07 02:30:58;;;;;;;6.73;1.50;;;;;;;10.08;100.00;100398.13;2081309;28;32048;-72
2022/11/07 02:32:09;;;;;;;9.65;1.58;;;;;;;10.09;100.00;100391.88;2087466;28;31553;-71
2022/11/07 02:33:22;;;;;;;6.50;1.30;;;;;;;10.10;100.00;100388.25;2087278;28;31583;-72
2022/11/07 02:34:23;;;;;;;10.90;2.15;;;;;;;10.12;100.00;100400.69;2088151;28;34157;-71
2022/11/07 02:35:42;;;;;;;5.18;1.70;;;;;;;10.13;100.00;100397.06;2087969;28;35796;-72
2022/11/07 02:36:43;;;;;;;4.93;1.30;;;;;;;10.18;100.00;100399.59;2080184;28;37933;-71
2022/11/07 02:37:45;;;;;;;4.78;1.33;;;;;;;10.19;100.00;100405.81;2079804;28;37138;-72
2022/11/07 02:38:52;;;;;;;5.57;1.35;;;;;;;10.21;100.00;100395.94;2079497;28;20037;-71
2022/11/07 02:39:54;;;;;;;4.15;1.30;;;;;;;10.24;100.00;100404.75;2072084;28;34508;-71
2022/11/07 02:41:21;;;;;;;3.17;1.23;;;;;;;10.23;100.00;100400.34;2079054;28;36985;-71
2022/11/07 02:42:23;;;;;;;6.45;1.83;;;;;;;10.25;100.00;100395.81;2079212;28;35786;-70
2022/11/07 02:43:29;;;;;;;6.55;1.35;;;;;;;10.25;100.00;100392.28;2074226;28;38818;-71
2022/11/07 02:44:33;;;;;;;5.05;1.20;;;;;;;10.25;100.00;100398.50;2072926;28;20093;-71
2022/11/07 02:45:39;;;;;;;6.47;1.20;;;;;;;10.25;100.00;100405.66;2079264;28;32749;-71
2022/11/07 02:46:41;;;;;;;5.38;1.33;;;;;;;10.24;100.00;100396.72;2080704;28;28803;-71
2022/11/07 02:47:43;;;;;;;6.20;1.50;;;;;;;10.25;100.00;100395.81;2079817;28;37337;-71
2022/11/07 02:48:50;;;;;;;7.90;1.50;;;;;;;10.25;100.00;100393.16;2087514;28;35428;-71
2022/11/07 02:49:51;;;;;;;6.68;1.40;;;;;;;10.26;100.00;100396.69;2086890;28;32300;-71
2022/11/07 02:50:53;;;;;;;6.38;1.23;;;;;;;10.24;100.00;100398.53;2087935;28;32984;-71
2022/11/07 02:51:54;;;;;;;5.45;1.30;;;;;;;10.22;100.00;100395.91;2086976;28;30674;-71
2022/11/07 02:52:56;;;;;;;6.82;1.27;;;;;;;10.20;100.00;100395.09;2087626;28;32860;-71
2022/11/07 02:53:58;;;;;;;6.93;1.42;;;;;;;10.20;100.00;100387.06;2087749;28;31266;-71
2022/11/07 02:55:00;;;;;;;7.30;1.58;;;;;;;10.22;100.00;100392.38;2087253;28;38617;-71
2022/11/07 02:56:03;;;;;;;5.43;1.35;;;;;;;10.19;100.00;100390.66;2087230;28;27492;-71
2022/11/07 02:57:04;;;;;;;7.65;1.33;;;;;;;10.16;100.00;100393.44;2087593;28;33418;-71
2022/11/07 02:58:06;;;;;;;6.03;1.73;;;;;;;10.11;100.00;100393.56;2087939;28;31489;-71
2022/11/07 02:59:08;;;;;;;2.60;1.15;;;;;;;10.08;100.00;100393.63;2088130;28;38901;-71
2022/11/07 03:00:13;;;;;;;8.13;1.20;;;;;;;10.10;100.00;100398.94;2086578;28;38510;-71
2022/11/07 03:01:17;;;;;;;3.83;1.10;;;;;;;10.07;100.00;100399.06;2087504;28;32039;-70
2022/11/07 03:02:18;;;;;;;6.80;1.15;;;;;;;10.07;100.00;100404.41;2087196;28;37257;-71
2022/11/07 03:03:20;;;;;;;7.35;1.20;;;;;;;10.05;100.00;100401.78;2086468;28;36265;-71
2022/11/07 03:04:23;;;;;;;5.07;1.15;;;;;;;10.04;100.00;100401.81;2088239;28;31871;-71
2022/11/07 03:05:27;;;;;;;6.15;1.40;;;;;;;10.01;100.00;100405.44;2087838;28;38417;-71
2022/11/07 03:06:29;;;;;;;8.38;1.10;;;;;;;10.01;100.00;100399.22;2087928;28;30089;-71
2022/11/07 03:07:31;;;;;;;6.32;1.20;;;;;;;10.01;100.00;100407.25;2087917;28;31803;-71
2022/11/07 03:08:33;;;;;;;5.22;1.38;;;;;;;10.02;100.00;100404.53;2087673;28;23833;-71
2022/11/07 03:09:35;;;;;;;4.90;0.93;;;;;;;10.06;100.00;100399.97;2086954;28;36072;-71
2022/11/07 03:10:36;;;;;;;4.70;1.20;;;;;;;10.04;100.00;100402.69;2087405;28;33765;-71
2022/11/07 03:11:38;;;;;;;7.32;1.95;;;;;;;10.03;100.00;100398.28;2087813;28;36055;-71
2022/11/07 03:12:40;;;;;;;3.38;1.20;;;;;;;10.03;100.00;100397.38;2088025;28;28871;-71
2022/11/07 03:13:41;;;;;;;6.30;1.17;;;;;;;10.01;100.00;100391.19;2086333;28;35137;-71
2022/11/07 03:14:43;;;;;;;5.68;1.30;;;;;;;10.02;100.00;100396.50;2088698;28;20041;-71
2022/11/07 03:15:45;;;;;;;5.90;1.23;;;;;;;10.02;100.00;100403.66;2088126;28;29262;-71
2022/11/07 03:16:49;;;;;;;7.82;1.70;;;;;;;10.03;100.00;100394.69;2086867;28;36885;-71
2022/11/07 03:17:51;;;;;;;8.50;1.60;;;;;;;10.03;100.00;100397.38;2079347;28;31339;-71
2022/11/07 03:18:53;;;;;;;7.55;1.40;;;;;;;10.08;100.00;100401.66;2087378;28;28447;-70
2022/11/07 03:19:57;;;;;;;8.95;1.42;;;;;;;10.04;100.00;100402.69;2087539;28;35915;-71
2022/11/07 03:20:59;;;;;;;8.35;1.40;;;;;;;10.05;100.00;100409.81;2087925;28;33904;-71
2022/11/07 03:22:02;;;;;;;7.28;1.33;;;;;;;10.02;100.00;100412.56;2087714;28;36300;-71
2022/11/07 03:23:04;;;;;;;7.05;1.42;;;;;;;10.09;100.00;100399.88;2088457;28;20041;-71
2022/11/07 03:24:06;;;;;;;9.52;1.33;;;;;;;10.08;100.00;100404.34;2087276;28;38777;-71
2022/11/07 03:25:07;;;;;;;9.10;1.65;;;;;;;10.08;100.00;100398.13;2087836;28;31585;-71
2022/11/07 03:26:09;;;;;;;7.13;1.30;;;;;;;10.05;100.00;100404.44;2087123;28;35278;-71
2022/11/07 03:27:11;;;;;;;7.72;1.52;;;;;;;10.02;100.00;100409.88;2086811;28;39128;-71
2022/11/07 03:28:12;;;;;;;6.80;1.45;;;;;;;10.03;100.00;100410.75;2087845;28;35834;-71
2022/11/07 03:29:14;;;;;;;6.22;1.33;;;;;;;10.05;100.00;100403.56;2087069;28;30227;-71
2022/11/07 03:30:16;;;;;;;7.78;1.20;;;;;;;10.05;100.00;100400.88;2086520;28;40542;-71
2022/11/07 03:31:20;;;;;;;6.82;1.02;;;;;;;10.07;100.00;100413.31;2079692;28;20859;-71
2022/11/07 03:32:22;;;;;;;10.55;1.55;;;;;;;10.10;100.00;100396.28;2078770;28;39748;-71
2022/11/07 03:33:24;;;;;;;7.15;1.65;;;;;;;10.10;100.00;100401.63;2087756;28;36594;-71
2022/11/07 03:34:25;;;;;;;5.82;1.20;;;;;;;10.13;100.00;100410.44;2087719;28;36316;-71
2022/11/07 03:35:27;;;;;;;5.13;1.10;;;;;;;10.17;100.00;100419.25;2087496;28;35270;-71
2022/11/07 03:36:29;;;;;;;7.53;1.27;;;;;;;10.19;100.00;100413.84;2087928;28;32303;-71
2022/11/07 03:37:31;;;;;;;7.07;1.27;;;;;;;10.20;100.00;100413.81;2088345;28;22998;-71
2022/11/07 03:38:32;;;;;;;6.10;1.33;;;;;;;10.19;100.00;100412.03;2087380;28;41825;-71
2022/11/07 03:39:34;;;;;;;6.15;1.05;;;;;;;10.19;100.00;100409.38;2088235;28;20044;-71
2022/11/07 03:40:36;;;;;;;4.22;1.08;;;;;;;10.17;100.00;100418.38;2087735;28;34745;-71
2022/11/07 03:41:38;;;;;;;6.38;1.30;;;;;;;10.17;100.00;100403.19;2088204;28;27035;-71
2022/11/07 03:42:41;;;;;;;7.30;1.40;;;;;;;10.15;100.00;100410.38;2087547;28;20046;-71
2022/11/07 03:43:44;;;;;;;5.47;1.20;;;;;;;10.15;100.00;100415.75;2078956;28;40887;-71
2022/11/07 03:44:45;;;;;;;7.28;1.15;;;;;;;10.14;100.00;100422.03;2087005;28;32159;-71
2022/11/07 03:45:47;;;;;;;4.60;1.20;;;;;;;10.12;100.00;100411.38;2088326;28;20783;-71
2022/11/07 03:46:49;;;;;;;6.55;1.50;;;;;;;10.16;100.00;100414.84;2087643;28;30100;-71
2022/11/07 03:47:50;;;;;;;9.82;1.70;;;;;;;10.13;100.00;100412.25;2087296;28;38562;-71
2022/11/07 03:48:52;;;;;;;7.43;1.13;;;;;;;10.11;100.00;100403.38;2086987;28;31858;-71
2022/11/07 03:49:54;;;;;;;4.82;1.20;;;;;;;10.10;100.00;100412.31;2087227;28;20582;-71
2022/11/07 03:50:56;;;;;;;5.60;1.10;;;;;;;10.06;100.00;100410.66;2086992;28;33219;-71
2022/11/07 03:51:57;;;;;;;5.72;1.48;;;;;;;10.08;100.00;100416.84;2087419;28;31770;-71
2022/11/07 03:52:59;;;;;;;7.32;1.45;;;;;;;10.07;100.00;100421.31;2087254;28;36427;-71
2022/11/07 03:54:01;;;;;;;7.95;1.33;;;;;;;10.03;100.00;100421.44;2087675;28;36700;-71
2022/11/07 03:55:03;;;;;;;8.27;1.70;;;;;;;9.96;100.00;100415.44;2087632;28;28762;-71
2022/11/07 03:56:12;;;;;;;7.95;1.17;;;;;;;9.93;100.00;100416.38;2086313;28;34806;-71
2022/11/07 03:57:13;;;;;;;7.35;1.52;;;;;;;9.94;100.00;100414.56;2087321;28;36255;-70
2022/11/07 03:58:15;;;;;;;10.45;1.50;;;;;;;9.97;100.00;100422.50;2087333;28;39122;-71
2022/11/07 03:59:19;;;;;;;5.60;1.42;;;;;;;10.01;100.00;100425.97;2086203;28;33595;-70
2022/11/07 04:00:21;;;;;;;8.43;1.60;;;;;;;10.01;100.00;100416.13;2086856;28;37511;-70
2022/11/07 04:01:23;;;;;;;8.25;1.52;;;;;;;10.04;100.00;100417.88;2087912;28;30640;-71
2022/11/07 04:02:24;;;;;;;9.77;1.60;;;;;;;10.05;100.00;100425.84;2087646;28;32267;-70
2022/11/07 04:03:27;;;;;;;6.55;1.15;;;;;;;10.10;100.00;100423.91;2087553;28;34823;-70
2022/11/07 04:04:28;;;;;;;6.82;1.50;;;;;;;10.11;100.00;100419.44;2087716;28;33454;-71
2022/11/07 04:05:30;;;;;;;7.60;1.05;;;;;;;10.10;100.00;100420.34;2087049;28;32640;-70
2022/11/07 04:06:32;;;;;;;7.15;1.33;;;;;;;10.12;100.00;100422.06;2087345;28;38290;-70
2022/11/07 04:07:33;;;;;;;5.90;1.15;;;;;;;10.17;100.00;100426.41;2087424;28;37653;-70
2022/11/07 04:08:35;;;;;;;6.20;1.50;;;;;;;10.19;100.00;100417.41;2088049;28;34702;-70
2022/11/07 04:09:37;;;;;;;8.23;1.33;;;;;;;10.19;100.00;100428.09;2086124;28;33374;-70
2022/11/07 04:10:39;;;;;;;10.13;1.30;;;;;;;10.16;100.00;100422.84;2087569;28;32434;-70
2022/11/07 04:17:19;;;;;;;4.68;1.30;;;;;;;9.98;100.00;100429.63;2079752;28;36484;-72
2022/11/07 04:18:20;;;;;;;5.93;1.17;;;;;;;9.99;100.00;100430.50;2079741;28;32781;-70
2022/11/07 04:19:25;;;;;;;7.47;1.13;;;;;;;10.00;100.00;100437.59;2079077;28;30799;-70
2022/11/07 04:20:27;;;;;;;6.10;0.88;;;;;;;9.99;100.00;100435.84;2079110;28;20934;-70
2022/11/07 04:21:29;;;;;;;7.15;1.15;;;;;;;9.97;100.00;100438.56;2078807;28;34063;-70
2022/11/07 04:22:31;;;;;;;9.95;1.40;;;;;;;9.97;100.00;100441.22;2079720;28;30455;-70
2022/11/07 04:23:33;;;;;;;6.70;1.25;;;;;;;9.98;100.00;100443.00;2079004;28;37223;-70
2022/11/07 04:24:35;;;;;;;15.48;2.05;;;;;;;10.00;100.00;100434.94;2079923;28;20045;-70
2022/11/07 04:28:20;;;;;;;;;;;;;;;10.08;100.00;100447.13;2079563;28;29690;-70
2022/11/07 04:29:22;;;;;;;6.75;1.20;;;;;;;10.13;100.00;100441.66;2079925;28;29074;-70
2022/11/07 04:30:27;;;;;;;9.15;1.17;;;;;;;10.15;100.00;100442.50;2086580;28;30842;-70
2022/11/07 04:31:28;;;;;;;9.00;1.88;;;;;;;10.17;100.00;100440.66;2086332;28;38797;-72
2022/11/07 04:32:32;;;;;;;7.90;1.50;;;;;;;10.23;100.00;100443.16;2079520;28;20034;-71
2022/11/07 04:33:34;;;;;;;7.00;1.45;;;;;;;10.26;100.00;100443.03;2078154;28;38722;-70
2022/11/07 04:34:36;;;;;;;6.28;1.40;;;;;;;10.27;100.00;100442.13;2078811;28;28582;-70
2022/11/07 04:35:38;;;;;;;7.13;1.13;;;;;;;10.32;100.00;100445.59;2084243;28;20041;-71
2022/11/07 04:36:42;;;;;;;10.25;1.40;;;;;;;10.32;100.00;100437.56;2088025;28;20033;-70
2022/11/07 04:37:44;;;;;;;9.27;1.20;;;;;;;10.37;100.00;100441.88;2087755;28;29693;-70
2022/11/07 04:38:46;;;;;;;8.13;1.52;;;;;;;10.37;100.00;100439.22;2077998;28;38324;-71
2022/11/07 04:39:47;;;;;;;8.90;1.33;;;;;;;10.35;100.00;100441.06;2079160;28;31831;-71
2022/11/07 04:40:57;;;;;;;6.10;1.65;;;;;;;10.37;100.00;100441.88;2087140;28;36488;-70
2022/11/07 04:41:59;;;;;;;6.28;1.27;;;;;;;10.36;100.00;100456.22;2087586;28;35838;-70
2022/11/07 04:43:02;;;;;;;7.82;1.63;;;;;;;10.34;100.00;100450.00;2087104;28;32032;-70
2022/11/07 04:44:04;;;;;;;8.05;1.20;;;;;;;10.33;100.00;100449.13;2087800;28;20038;-71
2022/11/07 04:45:07;;;;;;;7.50;1.80;;;;;;;10.35;100.00;100459.78;2086524;28;31737;-70
2022/11/07 04:46:09;;;;;;;8.52;1.30;;;;;;;10.34;100.00;100439.28;2079229;28;39152;-70
2022/11/07 04:47:10;;;;;;;7.78;1.40;;;;;;;10.33;100.00;100446.47;2078567;28;37498;-71
2022/11/07 04:48:12;;;;;;;6.82;1.08;;;;;;;10.37;100.00;100456.13;2086824;28;36014;-70
2022/11/07 04:49:18;;;;;;;9.15;1.40;;;;;;;10.38;100.00;100457.03;2086873;28;23504;-71
2022/11/07 04:50:20;;;;;;;9.52;1.33;;;;;;;10.40;100.00;100456.06;2087718;28;34850;-70
2022/11/07 04:51:22;;;;;;;8.00;1.52;;;;;;;10.46;100.00;100457.66;2086940;28;32663;-71
2022/11/07 04:52:23;;;;;;;7.78;1.38;;;;;;;10.49;100.00;100454.91;2086790;28;33137;-71
2022/11/07 04:53:27;;;;;;;9.75;1.48;;;;;;;10.50;100.00;100459.34;2087235;28;31579;-70
2022/11/07 04:54:29;;;;;;;9.55;1.23;;;;;;;10.47;100.00;100446.91;2087708;28;24473;-70
2022/11/07 04:55:31;;;;;;;8.18;1.08;;;;;;;10.44;100.00;100454.16;2086961;28;40288;-70
2022/11/07 04:56:32;;;;;;;7.53;1.27;;;;;;;10.41;100.00;100451.56;2087328;28;36069;-71
2022/11/07 04:57:37;;;;;;;8.05;1.60;;;;;;;10.38;100.00;100452.56;2086222;28;20041;-71
2022/11/07 04:58:39;;;;;;;8.35;1.38;;;;;;;10.32;100.00;100455.44;2087173;28;31079;-70
2022/11/07 04:59:45;;;;;;;9.35;1.30;;;;;;;10.31;100.00;100459.88;2087879;28;20042;-70
2022/11/07 05:00:47;;;;;;;9.68;1.60;;;;;;;10.31;100.00;100464.34;2087456;28;32621;-70
2022/11/07 05:01:48;;;;;;;8.38;1.23;;;;;;;10.31;100.00;100456.34;2087247;28;35907;-70
2022/11/07 05:02:51;;;;;;;6.85;1.30;;;;;;;10.29;100.00;100456.34;2086876;28;20112;-71
2022/11/07 05:03:55;;;;;;;8.10;1.35;;;;;;;10.28;100.00;100454.59;2086529;28;31238;-70